Time;durP1;ratioP1;P1;durP2;ratioP2;P2;SDS_P1;SDS_P2;PMS_P1;PMS_P2;Temp;Humidity;BMP_temperature;BMP_pressure;BME280_temperature;BME280_humidity;BME280_pressure;Samples;Min_cycle;Max_cycle;Signal;HPM_P1;HPM_P2
2023/01/16 00:00:36;;;;;;;4.72;2.20;;;;;;;;;;5042369;28;20052;-74
2023/01/16 00:03:04;;;;;;;5.07;2.70;;;;;;;;;;5041902;28;20045;-65
2023/01/16 00:05:31;;;;;;;5.40;2.40;;;;;;;;;;5056626;28;20395;-71
2023/01/16 00:07:57;;;;;;;4.25;2.22;;;;;;;;;;5057253;28;20052;-71
2023/01/16 00:10:23;;;;;;;5.30;2.30;;;;;;;;;;5057098;28;20049;-70
2023/01/16 00:12:49;;;;;;;4.95;2.45;;;;;;;;;;5057262;28;20084;-70
2023/01/16 00:15:15;;;;;;;4.15;2.20;;;;;;;;;;5038867;28;20051;-69
2023/01/16 00:17:42;;;;;;;5.78;2.40;;;;;;;;;;5057319;28;20178;-70
2023/01/16 00:20:08;;;;;;;4.95;2.53;;;;;;;;;;5039082;28;20162;-69
2023/01/16 00:22:35;;;;;;;4.75;2.17;;;;;;;;;;5056844;28;20037;-69
2023/01/16 00:25:01;;;;;;;4.03;2.00;;;;;;;;;;5056167;28;20390;-71
2023/01/16 00:27:27;;;;;;;5.85;2.30;;;;;;;;;;5056552;28;20056;-71
2023/01/16 00:29:53;;;;;;;4.50;1.90;;;;;;;;;;5057107;28;20403;-69
2023/01/16 00:32:19;;;;;;;4.63;1.95;;;;;;;;;;5038775;28;20145;-69
2023/01/16 00:34:46;;;;;;;4.18;1.80;;;;;;;;;;5055392;28;20067;-69
2023/01/16 00:37:16;;;;;;;3.92;1.60;;;;;;;;;;5056682;28;20084;-69
2023/01/16 00:39:42;;;;;;;5.28;1.80;;;;;;;;;;5038586;28;20056;-69
2023/01/16 00:42:08;;;;;;;4.32;2.03;;;;;;;;;;5038522;28;20041;-68
2023/01/16 00:44:35;;;;;;;3.83;1.80;;;;;;;;;;5056198;28;20086;-71
2023/01/16 00:47:01;;;;;;;5.88;2.00;;;;;;;;;;5056589;28;20106;-71
2023/01/16 00:49:27;;;;;;;2.42;1.55;;;;;;;;;;5056693;28;20029;-69
2023/01/16 00:51:54;;;;;;;3.88;1.80;;;;;;;;;;5056551;28;20041;-70
2023/01/16 00:54:19;;;;;;;3.70;1.52;;;12.80;94.20;;;;;;5038187;28;20091;-71
2023/01/16 00:56:46;;;;;;;3.90;1.70;;;;;;;;;;5055077;28;20080;-72
2023/01/16 00:59:12;;;;;;;4.03;1.80;;;;;;;;;;5055171;28;20044;-71
2023/01/16 01:01:38;;;;;;;4.68;1.67;;;;;;;;;;5056386;28;20041;-70
2023/01/16 01:04:04;;;;;;;4.82;1.45;;;;;;;;;;5054010;28;20056;-70
2023/01/16 01:06:30;;;;;;;4.95;1.67;;;;;;;;;;5054350;28;20033;-69
2023/01/16 01:08:57;;;;;;;4.13;1.45;;;;;;;;;;5038583;28;20380;-68
2023/01/16 01:11:23;;;;;;;5.97;1.63;;;;;;;;;;5054844;28;20537;-69
2023/01/16 01:13:49;;;;;;;3.75;1.50;;;;;;;;;;5038523;28;20128;-70
2023/01/16 01:16:18;;;;;;;3.83;1.42;;;;;;;;;;5021124;28;20032;-69
2023/01/16 01:18:44;;;;;;;3.72;1.40;;;;;;;;;;5055194;28;20048;-70
2023/01/16 01:21:11;;;;;;;3.75;1.55;;;;;;;;;;5055988;28;20056;-71
2023/01/16 01:23:37;;;;;;;4.07;1.42;;;;;;;;;;5037567;28;20494;-68
2023/01/16 01:26:09;;;;;;;3.67;1.60;;;;;;;;;;5056059;28;20112;-71
2023/01/16 01:28:35;;;;;;;6.20;1.98;;;13.10;94.20;;;;;;5034086;28;20168;-72
2023/01/16 01:31:05;;;;;;;3.33;1.40;;;;;;;;;;5053592;28;20124;-71
2023/01/16 01:33:30;;;;;;;3.55;1.58;;;13.30;94.20;;;;;;5053707;28;20037;-71
2023/01/16 01:35:56;;;;;;;3.25;1.40;;;13.10;94.20;;;;;;5055587;28;20048;-71
2023/01/16 01:38:22;;;;;;;3.83;1.40;;;;;;;;;;5055420;28;20098;-71
2023/01/16 01:40:48;;;;;;;5.22;1.40;;;13.00;92.90;;;;;;5037858;28;20049;-70
2023/01/16 01:43:14;;;;;;;4.13;1.60;;;13.10;94.20;;;;;;5055748;28;20052;-71
2023/01/16 01:45:41;;;;;;;3.75;1.65;;;;;;;;;;5055254;28;20048;-71
2023/01/16 01:48:13;;;;;;;3.25;1.40;;;12.80;92.00;;;;;;5037018;28;20037;-72
2023/01/16 01:50:50;;;;;;;5.00;1.38;;;13.20;94.10;;;;;;5038769;28;20387;-71
2023/01/16 01:53:17;;;;;;;3.70;1.40;;;;;;;;;;5035395;28;20399;-71
2023/01/16 01:55:43;;;;;;;4.00;1.90;;;;;;;;;;5035517;28;20480;-72
2023/01/16 01:58:09;;;;;;;3.65;1.52;;;;;;;;;;5049471;28;20059;-71
2023/01/16 02:00:35;;;;;;;3.17;1.45;;;13.20;94.20;;;;;;5035204;28;20049;-70
2023/01/16 02:03:08;;;;;;;4.63;1.60;;;13.20;94.10;;;;;;5036754;28;20052;-71
2023/01/16 02:05:44;;;;;;;3.17;1.35;;;13.00;94.20;;;;;;5055459;28;20395;-71
2023/01/16 02:08:16;;;;;;;4.50;1.40;;;12.80;94.00;;;;;;5037432;28;20046;-71
2023/01/16 02:11:25;;;;;;;3.72;1.67;;;13.20;92.90;;;;;;5021629;28;20120;-71
2023/01/16 02:14:03;;;;;;;3.85;1.45;;;13.10;92.80;;;;;;5019975;28;20061;-71
2023/01/16 02:19:52;;;;;;;4.45;1.73;;;13.00;92.80;;;;;;5054407;28;20051;-68
2023/01/16 02:22:51;;;;;;;3.58;1.42;;;12.90;92.90;;;;;;5037644;28;20049;-71
2023/01/16 02:25:42;;;;;;;5.28;1.50;;;13.30;94.10;;;;;;5020522;28;20045;-69
2023/01/16 02:28:20;;;;;;;4.78;1.45;;;;;;;;;;5054350;28;20048;-70
2023/01/16 02:31:25;;;;;;;3.78;1.38;;;13.00;92.80;;;;;;5035671;28;20060;-70
2023/01/16 02:33:58;;;;;;;3.92;1.30;;;;;;;;;;5048794;28;20045;-69
2023/01/16 02:36:40;;;;;;;3.95;1.48;;;13.30;92.90;;;;;;5036730;28;20057;-69
2023/01/16 02:39:12;;;;;;;3.17;1.35;;;;;;;;;;5036681;28;20053;-70
2023/01/16 02:42:05;;;;;;;3.70;1.50;;;13.00;92.20;;;;;;5053377;28;20049;-69
2023/01/16 02:44:36;;;;;;;4.35;1.40;;;;;;;;;;5037530;28;20475;-69
2023/01/16 02:47:21;;;;;;;3.67;1.55;;;;;;;;;;5036459;28;20080;-70
2023/01/16 02:49:51;;;;;;;2.20;1.23;;;;;;;;;;5053386;28;20041;-70
2023/01/16 02:52:36;;;;;;;4.80;1.38;;;;;;;;;;5035989;28;20060;-70
2023/01/16 02:55:08;;;;;;;3.67;1.48;;;;;;;;;;5017783;28;20400;-69
2023/01/16 02:57:35;;;;;;;3.72;1.48;;;;;;;;;;5038346;28;20048;-69
2023/01/16 03:00:03;;;;;;;3.65;1.30;;;;;;;;;;5019401;28;20437;-69
2023/01/16 03:02:30;;;;;;;4.28;1.50;;;;;;;;;;5036673;28;20127;-71
2023/01/16 03:04:56;;;;;;;5.20;1.40;;;;;;;;;;5054272;28;20037;-70
2023/01/16 03:07:32;;;;;;;4.05;1.27;;;;;;;;;;5036598;28;20071;-68
2023/01/16 03:09:58;;;;;;;4.20;1.38;;;;;;;;;;5034960;28;20449;-69
2023/01/16 03:12:30;;;;;;;4.65;1.40;;;;;;;;;;5053656;28;20395;-71
2023/01/16 03:15:14;;;;;;;4.25;1.48;;;;;;;;;;5036205;28;20082;-71
2023/01/16 03:18:11;;;;;;;6.35;2.08;;;13.20;92.80;;;;;;5054309;28;20045;-69
2023/01/16 03:20:53;;;;;;;5.93;1.52;;;;;;;;;;5052910;28;20092;-71
2023/01/16 03:23:29;;;;;;;3.70;1.25;;;;;;;;;;5054660;28;20080;-71
2023/01/16 03:25:57;;;;;;;3.33;1.25;;;;;;;;;;5052117;28;20043;-70
2023/01/16 03:28:28;;;;;;;3.42;1.50;;;;;;;;;;5052935;28;20562;-69
2023/01/16 03:31:24;;;;;;;4.40;1.42;;;13.20;92.20;;;;;;5051826;28;20051;-69
2023/01/16 03:33:58;;;;;;;3.65;1.25;;;;;;;;;;5053586;28;20510;-69
2023/01/16 03:36:26;;;;;;;3.72;1.30;;;;;;;;;;5035916;28;20056;-69
2023/01/16 03:38:52;;;;;;;3.83;1.42;;;;;;;;;;5036127;28;20410;-69
2023/01/16 03:41:19;;;;;;;3.03;1.35;;;;;;;;;;5030727;28;20129;-68
2023/01/16 03:43:45;;;;;;;5.53;1.80;;;;;;;;;;5051309;28;20053;-71
2023/01/16 03:46:13;;;;;;;4.60;1.60;;;;;;;;;;5035864;28;20131;-70
2023/01/16 03:48:47;;;;;;;3.50;1.42;;;;;;;;;;5035014;28;20087;-70
2023/01/16 03:51:18;;;;;;;3.53;1.55;;;13.10;92.60;;;;;;5034878;28;20041;-69
2023/01/16 03:53:46;;;;;;;4.07;1.38;;;;;;;;;;5019322;28;20053;-69
2023/01/16 03:56:24;;;;;;;5.72;1.38;;;;;;;;;;5032079;28;20488;-70
2023/01/16 03:58:50;;;;;;;2.90;1.30;;;;;;;;;;5032015;28;20403;-67
2023/01/16 04:01:27;;;;;;;4.18;1.60;;;;;;;;;;5052472;28;20037;-70
2023/01/16 04:03:57;;;;;;;3.55;1.58;;;;;;;;;;5052162;28;20049;-70
2023/01/16 04:06:32;;;;;;;4.28;1.50;;;;;;;;;;5035324;28;20041;-69
2023/01/16 04:08:58;;;;;;;6.90;1.55;;;;;;;;;;5035697;28;20048;-70
2023/01/16 04:11:25;;;;;;;3.58;1.42;;;;;;;;;;5034917;28;20045;-70
2023/01/16 04:13:52;;;;;;;4.80;1.40;;;;;;;;;;5052106;28;20090;-68
2023/01/16 04:16:18;;;;;;;3.13;1.10;;;;;;;;;;5035979;28;20471;-69
2023/01/16 04:18:44;;;;;;;3.25;1.20;;;;;;;;;;5053555;28;20049;-71
2023/01/16 04:21:10;;;;;;;5.40;1.40;;;;;;;;;;5054382;28;20037;-71
2023/01/16 04:23:37;;;;;;;4.30;1.42;;;;;;;;;;5035434;28;20045;-70
2023/01/16 04:26:03;;;;;;;4.20;1.42;;;;;;;;;;5053257;28;20041;-70
2023/01/16 04:28:29;;;;;;;5.40;1.50;;;;;;;;;;5051945;28;20049;-73
2023/01/16 04:30:56;;;;;;;4.13;1.33;;;;;;;;;;5019377;28;20392;-74
2023/01/16 04:33:22;;;;;;;4.07;1.33;;;;;;;;;;5034103;28;20049;-70
2023/01/16 04:35:48;;;;;;;3.60;1.40;;;;;;;;;;5054153;28;20063;-69
2023/01/16 04:38:15;;;;;;;3.15;1.33;;;;;;;;;;5051627;28;20103;-68
2023/01/16 04:40:43;;;;;;;5.43;1.88;;;;;;;;;;5054854;28;20473;-69
2023/01/16 04:43:10;;;;;;;4.20;1.83;;;;;;;;;;5056801;28;20045;-70
2023/01/16 04:45:39;;;;;;;5.20;1.50;;;;;;;;;;5038167;28;20124;-70
2023/01/16 04:48:05;;;;;;;5.85;1.58;;;;;;;;;;5057103;28;20403;-69
2023/01/16 04:50:31;;;;;;;4.22;1.42;;;;;;;;;;5039543;28;20076;-70
2023/01/16 04:52:58;;;;;;;4.30;1.42;;;;;;;;;;5038150;28;20106;-68
2023/01/16 04:55:24;;;;;;;3.83;1.40;;;;;;;;;;5059756;28;20049;-69
2023/01/16 04:57:51;;;;;;;3.67;1.45;;;;;;;;;;5076472;28;20088;-69
2023/01/16 05:00:17;;;;;;;6.05;1.67;;;;;;;;;;5026583;28;20037;-70
2023/01/16 05:02:44;;;;;;;3.80;1.67;;;;;;;;;;5068758;28;20049;-70
2023/01/16 05:05:10;;;;;;;3.88;1.60;;;;;;;;;;5037997;28;20036;-70
2023/01/16 05:07:36;;;;;;;3.28;1.50;;;;;;;;;;5053769;28;20057;-70
2023/01/16 05:10:03;;;;;;;5.10;1.67;;;;;;;;;;5038681;28;20072;-69
2023/01/16 05:12:29;;;;;;;3.75;1.50;;;;;;;;;;5038502;28;20053;-70
2023/01/16 05:14:55;;;;;;;6.15;1.95;;;;;;;;;;5056097;28;20399;-71
2023/01/16 05:17:24;;;;;;;5.90;1.75;;;;;;;;;;5056349;28;20045;-70
2023/01/16 05:19:51;;;;;;;3.92;1.42;;;;;;;;;;5038177;28;20486;-71
2023/01/16 05:22:25;;;;;;;5.80;1.95;;;;;;;;;;5021967;28;20057;-69
2023/01/16 05:24:51;;;;;;;2.83;1.40;;;;;;;;;;5038174;28;20057;-70
2023/01/16 05:27:17;;;;;;;2.97;1.33;;;;;;;;;;5037282;28;20064;-69
2023/01/16 05:29:43;;;;;;;3.67;1.38;;;;;;;;;;5055131;28;20052;-69
2023/01/16 05:32:10;;;;;;;5.38;1.80;;;;;;;;;;5053866;28;20075;-70
2023/01/16 05:34:36;;;;;;;4.65;1.52;;;;;;;;;;5055888;28;20045;-70
2023/01/16 05:37:02;;;;;;;4.47;1.35;;;;;;;;;;5004529;28;20081;-69
2023/01/16 05:39:29;;;;;;;5.05;1.88;;;;;;;;;;5038352;28;20056;-70
2023/01/16 05:41:55;;;;;;;5.03;1.60;;;;;;;;;;5055543;28;20045;-70
2023/01/16 05:44:21;;;;;;;3.78;1.63;;;;;;;;;;5054666;28;20048;-69
2023/01/16 05:46:51;;;;;;;4.18;1.48;;;;;;;;;;5019859;28;20049;-70
2023/01/16 05:49:19;;;;;;;5.03;1.70;;;;;;;;;;5022006;28;20041;-70
2023/01/16 05:51:46;;;;;;;3.42;1.60;;;;;;;;;;5037183;28;20044;-69
2023/01/16 05:54:12;;;;;;;4.28;1.50;;;;;;;;;;5037585;28;20148;-68
2023/01/16 05:56:38;;;;;;;4.10;1.50;;;;;;;;;;5054273;28;20064;-69
2023/01/16 05:59:07;;;;;;;4.55;2.00;;;;;;;;;;5054162;28;20049;-69
2023/01/16 06:01:33;;;;;;;4.57;1.80;;;;;;;;;;5053605;28;20413;-68
2023/01/16 06:03:59;;;;;;;5.45;1.80;;;;;;;;;;5037118;28;20057;-69
2023/01/16 06:06:26;;;;;;;4.03;1.52;;;;;;;;;;5055053;28;20467;-69
2023/01/16 06:08:52;;;;;;;3.28;1.50;;;;;;;;;;5015999;28;20060;-68
2023/01/16 06:11:18;;;;;;;4.10;1.70;;;;;;;;;;5017458;28;20128;-69
2023/01/16 06:13:46;;;;;;;4.07;1.85;;;;;;;;;;5037372;28;20533;-70
2023/01/16 06:16:12;;;;;;;4.20;1.90;;;;;;;;;;5053772;28;20048;-68
2023/01/16 06:18:38;;;;;;;4.28;1.77;;;;;;;;;;5036380;28;20444;-69
2023/01/16 06:21:05;;;;;;;3.38;1.73;;;;;;;;;;5054701;28;20080;-69
2023/01/16 06:23:34;;;;;;;4.88;2.08;;;;;;;;;;5051500;28;20406;-68
2023/01/16 06:26:05;;;;;;;4.63;2.08;;;;;;;;;;5020262;28;20041;-69
2023/01/16 06:28:32;;;;;;;5.20;1.83;;;;;;;;;;5036432;28;20087;-68
2023/01/16 06:30:58;;;;;;;4.43;2.20;;;;;;;;;;5053972;28;20071;-70
2023/01/16 06:33:24;;;;;;;4.70;2.17;;;;;;;;;;5039791;28;20486;-70
2023/01/16 06:35:51;;;;;;;5.28;2.30;;;;;;;;;;5055725;28;20056;-71
2023/01/16 06:38:17;;;;;;;4.03;2.03;;;;;;;;;;5036972;28;20596;-71
2023/01/16 06:40:44;;;;;;;5.43;2.40;;;13.00;92.50;;;;;;5036787;28;20052;-71
2023/01/16 06:43:10;;;;;;;5.88;2.50;;;;;;;;;;5054608;28;20045;-71
2023/01/16 06:45:37;;;;;;;4.97;2.83;;;;;;;;;;5055488;28;20112;-69
2023/01/16 06:48:03;;;;;;;6.57;3.20;;;;;;;;;;5053459;28;20047;-70
2023/01/16 06:50:32;;;;;;;8.95;3.63;;;;;;;;;;5054544;28;20450;-70
2023/01/16 06:52:59;;;;;;;7.10;3.40;;;;;;;;;;5056022;28;20041;-71
2023/01/16 06:55:25;;;;;;;7.13;3.58;;;;;;;;;;5055598;28;20037;-71
2023/01/16 06:57:56;;;;;;;7.50;3.35;;;;;;;;;;5056268;28;20091;-70
2023/01/16 07:00:25;;;;;;;6.85;3.92;;;;;;;;;;5052775;28;20048;-69
2023/01/16 07:02:55;;;;;;;4.90;2.90;;;;;;;;;;5054422;28;20049;-70
2023/01/16 07:05:24;;;;;;;7.03;3.30;;;;;;;;;;5055312;28;20037;-70
2023/01/16 07:07:51;;;;;;;5.28;3.00;;;;;;;;;;5036105;28;20045;-69
2023/01/16 07:10:20;;;;;;;8.27;3.15;;;;;;;;;;5035247;28;20048;-70
2023/01/16 07:12:46;;;;;;;6.78;3.10;;;;;;;;;;5052988;28;20494;-70
2023/01/16 07:23:29;;;;;;;6.25;2.90;;;;;;;;;;5053520;28;20490;-69
2023/01/16 07:25:56;;;;;;;4.47;2.50;;;;;;;;;;5034309;28;20048;-68
2023/01/16 07:28:22;;;;;;;6.65;2.72;;;;;;;;;;5019176;28;20110;-68
2023/01/16 07:30:48;;;;;;;5.20;2.78;;;;;;;;;;5053895;28;20441;-70
2023/01/16 07:33:15;;;;;;;4.63;2.67;;;;;;;;;;5036806;28;20386;-70
2023/01/16 07:35:41;;;;;;;5.50;2.80;;;;;;;;;;5037795;28;20048;-70
2023/01/16 07:38:07;;;;;;;5.32;2.63;;;;;;;;;;5035774;28;20402;-72
2023/01/16 07:40:34;;;;;;;5.78;2.42;;;;;;;;;;5052660;28;20170;-70
2023/01/16 07:43:00;;;;;;;5.97;2.72;;;;;;;;;;5032722;28;20559;-71
2023/01/16 07:45:26;;;;;;;7.05;2.35;;;;;;;;;;5033701;28;20212;-71
2023/01/16 07:47:52;;;;;;;6.47;2.95;;;;;;;;;;5035209;28;20045;-71
2023/01/16 07:50:18;;;;;;;4.68;2.58;;;13.00;93.80;;;;;;5035308;28;20044;-73
2023/01/16 07:52:45;;;;;;;5.50;2.85;;;;;;;;;;5053431;28;20048;-71
2023/01/16 07:55:11;;;;;;;8.93;2.97;;;;;;;;;;5053173;28;20041;-70
2023/01/16 07:57:38;;;;;;;4.72;2.53;;;;;;;;;;5055085;28;20041;-70
2023/01/16 08:00:08;;;;;;;4.82;2.28;;;12.80;93.80;;;;;;5053653;28;20040;-71
2023/01/16 08:02:34;;;;;;;5.95;2.72;;;13.10;93.80;;;;;;5034627;28;20056;-70
2023/01/16 08:05:00;;;;;;;6.35;2.45;;;;;;;;;;5052706;28;20037;-72
2023/01/16 08:07:26;;;;;;;8.30;3.00;;;13.00;93.80;;;;;;5052567;28;20044;-71
2023/01/16 08:09:52;;;;;;;5.97;2.95;;;12.80;93.80;;;;;;5053420;28;20110;-71
2023/01/16 08:12:17;;;;;;;6.63;2.42;;;12.80;93.70;;;;;;5053638;28;20040;-71
2023/01/16 08:14:43;;;;;;;5.05;2.60;;;13.10;93.70;;;;;;5054272;28;20047;-72
2023/01/16 08:17:09;;;;;;;5.25;2.45;;;12.80;93.60;;;;;;5056129;28;20041;-72
2023/01/16 08:19:35;;;;;;;7.85;2.70;;;;;;;;;;5056414;28;20052;-71
2023/01/16 08:22:04;;;;;;;8.02;2.75;;;;;;;;;;5059340;28;20041;-74
2023/01/16 08:24:31;;;;;;;5.00;2.58;;;;;;;;;;5059271;28;20044;-70
2023/01/16 08:26:57;;;;;;;5.40;2.65;;;;;;;;;;5052294;28;20096;-70
2023/01/16 08:29:23;;;;;;;5.10;2.70;;;12.70;93.60;;;;;;5037835;28;20060;-71
2023/01/16 08:31:49;;;;;;;4.35;2.33;;;;;;;;;;5039464;28;20141;-69
2023/01/16 08:34:15;;;;;;;5.10;2.25;;;12.60;93.50;;;;;;5057063;28;20037;-72
2023/01/16 08:36:41;;;;;;;5.60;2.47;;;;;;;;;;5037596;28;20128;-70
2023/01/16 08:39:09;;;;;;;6.78;2.30;;;12.90;92.20;;;;;;5037418;28;20041;-71
2023/01/16 08:52:44;;;;;;;5.63;2.42;;;;;;;;;;5042491;28;20045;-71
2023/01/16 08:55:11;;;;;;;6.95;2.40;;;;;;;;;;5042607;28;20038;-69
2023/01/16 08:57:40;;;;;;;4.38;2.42;;;;;;;;;;5040241;28;20037;-69
2023/01/16 09:00:07;;;;;;;4.72;2.40;;;;;;;;;;5041111;28;20510;-68
2023/01/16 09:02:35;;;;;;;8.07;2.65;;;;;;;;;;5040930;28;20049;-75
2023/01/16 09:05:02;;;;;;;4.47;2.60;;;;;;;;;;5044026;28;20069;-69
2023/01/16 09:07:28;;;;;;;4.80;2.30;;;;;;;;;;5040282;28;20037;-75
2023/01/16 09:09:55;;;;;;;8.23;2.95;;;;;;;;;;5040046;28;20041;-70
2023/01/16 09:15:09;;;;;;;6.60;2.30;;;;;;;;;;5026925;28;20046;-75
2023/01/16 09:17:35;;;;;;;7.03;2.92;;;;;;;;;;5021598;28;20046;-75
2023/01/16 09:20:02;;;;;;;4.38;2.13;;;;;;;;;;5051963;28;20620;-70
2023/01/16 09:22:28;;;;;;;6.22;2.50;;;;;;;;;;5036506;28;20045;-70
2023/01/16 09:24:54;;;;;;;4.90;2.40;;;;;;;;;;5050347;28;20057;-71
2023/01/16 09:27:20;;;;;;;5.78;2.33;;;;;;;;;;5035143;28;20087;-72
2023/01/16 09:29:47;;;;;;;8.00;2.55;;;;;;;;;;5035400;28;20049;-70
2023/01/16 09:32:12;;;;;;;7.43;2.85;;;12.80;93.30;;;;;;5035867;28;20042;-72
2023/01/16 09:34:39;;;;;;;5.22;2.20;;;;;;;;;;5036279;28;20056;-71
2023/01/16 09:37:05;;;;;;;7.43;3.28;;;12.50;91.50;;;;;;5048502;28;20053;-72
2023/01/16 09:39:31;;;;;;;5.82;2.30;;;;;;;;;;5053612;28;20457;-67
2023/01/16 09:44:59;;;;;;;5.88;2.30;;;13.00;93.20;;;;;;5025451;28;20049;-72
2023/01/16 09:47:25;;;;;;;7.80;2.55;;;12.70;93.10;;;;;;5042889;28;20395;-70
2023/01/16 09:50:11;;;;;;;10.15;2.50;;;12.50;93.20;;;;;;5054395;28;20052;-70
2023/01/16 09:58:37;;;;;;;6.43;2.28;;;;;;;;;;5014682;28;20074;-70
2023/01/16 10:01:14;;;;;;;4.97;2.20;;;12.10;92.90;;;;;;5055840;28;20099;-72
2023/01/16 10:03:43;;;;;;;6.57;2.30;;;12.10;91.60;;;;;;5057301;28;20075;-75
2023/01/16 10:06:29;;;;;;;5.85;2.50;;;12.10;92.90;;;;;;5055283;28;20105;-59
2023/01/16 10:09:18;;;;;;;7.40;2.53;;;12.10;93.00;;;;;;5052116;28;20049;-70
2023/01/16 10:12:04;;;;;;;4.57;2.10;;;11.90;91.20;;;;;;5034268;28;20049;-68
2023/01/16 10:14:39;;;;;;;10.20;2.63;;;12.00;91.20;;;;;;5042016;28;20071;-70
2023/01/16 10:17:05;;;;;;;5.70;2.55;;;11.90;93.00;;;;;;5042293;28;20045;-71
2023/01/16 10:19:40;;;;;;;6.72;2.42;;;;;;;;;;5036233;28;20071;-71
2023/01/16 10:22:26;;;;;;;6.72;2.53;;;11.80;92.70;;;;;;5051880;28;20044;-70
2023/01/16 10:25:30;;;;;;;7.15;2.40;;;11.80;91.30;;;;;;5038758;28;20143;-73
2023/01/16 10:27:59;;;;;;;8.43;2.17;;;11.30;93.10;;;;;;5021634;28;20411;-72
2023/01/16 10:30:28;;;;;;;9.25;2.30;;;11.80;93.40;;;;;;5054216;28;20041;-72
2023/01/16 10:33:07;;;;;;;6.25;2.10;;;;;;;;;;5055613;28;20394;-71
2023/01/16 10:35:35;;;;;;;5.57;1.98;;;11.70;92.10;;;;;;5055284;28;20041;-73
2023/01/16 10:38:46;;;;;;;7.50;2.30;;;11.70;91.70;;;;;;5052269;28;20419;-72
2023/01/16 10:49:25;;;;;;;4.43;2.00;;;12.00;92.10;;;;;;5035728;28;20053;-72
2023/01/16 10:49:48;;;;;;;5.22;2.08;;;11.90;93.20;;;;;;4972041;28;20065;-73
2023/01/16 10:52:14;;;;;;;5.93;1.83;;;;;;;;;;4968361;28;20133;-76
2023/01/16 10:54:40;;;;;;;5.68;1.90;;;12.40;93.30;;;;;;4975159;28;20429;-75
2023/01/16 10:57:13;;;;;;;4.95;1.60;;;;;;;;;;4972617;28;20130;-74
2023/01/16 10:59:39;;;;;;;4.60;1.70;;;12.10;93.10;;;;;;4970349;28;20066;-74
2023/01/16 11:02:21;;;;;;;4.10;1.58;;;12.30;91.80;;;;;;4983817;28;20816;-73
2023/01/16 11:04:47;;;;;;;2.75;1.30;;;;;;;;;;4971500;28;20386;-72
2023/01/16 11:07:19;;;;;;;3.35;1.50;;;12.20;91.70;;;;;;4972463;28;20042;-71
2023/01/16 11:09:45;;;;;;;3.80;1.83;;;;;;;;;;4971717;28;20109;-68
2023/01/16 11:18:31;;;;;;;4.50;1.30;;;;;;;;;;4997051;28;20041;-74
2023/01/16 11:21:02;;;;;;;2.00;0.98;;;;;;;;;;5050610;28;20060;-70
2023/01/16 11:23:37;;;;;;;3.03;1.13;;;12.30;91.90;;;;;;5048687;28;20041;-70
2023/01/16 11:26:03;;;;;;;2.35;1.20;;;;;;;;;;5042895;28;20410;-62
2023/01/16 11:28:32;;;;;;;2.58;1.00;;;12.10;93.20;;;;;;5049921;28;20402;-71
2023/01/16 11:31:00;;;;;;;3.65;1.20;;;12.20;93.10;;;;;;5048551;28;20048;-72
2023/01/16 11:33:32;;;;;;;3.78;1.45;;;12.00;91.80;;;;;;5050603;28;20167;-68
2023/01/16 11:35:59;;;;;;;4.55;1.60;;;;;;;;;;5042620;28;20276;-71
2023/01/16 11:38:26;;;;;;;6.10;1.50;;;11.80;91.60;;;;;;5033643;28;20127;-70
2023/01/16 11:40:52;;;;;;;2.80;1.35;;;;;;;;;;5044133;28;20053;-70
2023/01/16 11:46:20;;;;;;;3.03;1.30;;;12.00;93.10;;;;;;5043646;28;20056;-58
2023/01/16 11:48:48;;;;;;;3.75;1.25;;;;;;;;;;5017139;28;20060;-69
2023/01/16 11:51:21;;;;;;;4.53;1.40;;;12.10;93.20;;;;;;5025889;28;20044;-70
2023/01/16 11:53:47;;;;;;;3.42;1.25;;;12.30;93.30;;;;;;5052912;28;20098;-70
2023/01/16 11:56:34;;;;;;;2.35;1.10;;;12.20;93.20;;;;;;5050659;28;20048;-71
2023/01/16 11:59:06;;;;;;;3.63;1.10;;;;;;;;;;5052400;28;20045;-70
2023/01/16 12:08:11;;;;;;;4.45;1.27;;;12.10;92.10;;;;;;5040978;28;20381;-70
2023/01/16 12:10:38;;;;;;;2.67;1.08;;;12.20;93.30;;;;;;5030276;28;20392;-58
2023/01/16 12:16:16;;;;;;;5.35;1.35;;;;;;;;;;5051917;28;20060;-69
2023/01/16 12:18:46;;;;;;;3.25;1.00;;;;;;;;;;5031747;28;20521;-70
2023/01/16 12:21:25;;;;;;;3.38;1.30;;;;;;;;;;5017619;28;20048;-72
2023/01/16 12:23:58;;;;;;;3.63;1.00;;;;;;;;;;5018271;28;20503;-69
2023/01/16 12:26:31;;;;;;;1.73;1.00;;;;;;;;;;5037677;28;20040;-74
2023/01/16 12:29:21;;;;;;;3.33;1.00;;;12.10;92.20;;;;;;5032550;28;20045;-72
2023/01/16 12:31:59;;;;;;;1.85;0.98;;;12.50;92.30;;;;;;5035099;28;20044;-72
2023/01/16 12:34:47;;;;;;;2.53;1.10;;;12.20;91.60;;;;;;5052976;28;20457;-71
2023/01/16 12:37:13;;;;;;;2.78;1.10;;;;;;;;;;5026890;28;20050;-71
2023/01/16 12:40:13;;;;;;;4.45;0.95;;;12.20;91.60;;;;;;5048327;28;20053;-70
2023/01/16 12:45:28;;;;;;;2.58;1.33;;;;;;;;;;5027219;28;20049;-69
2023/01/16 12:47:54;;;;;;;3.00;1.05;;;;;;;;;;5030314;28;20376;-73
2023/01/16 12:50:20;;;;;;;2.92;1.25;;;;;;;;;;5032015;28;20041;-75
2023/01/16 12:53:02;;;;;;;8.02;1.30;;;;;;;;;;5031177;28;20077;-69
2023/01/16 12:55:45;;;;;;;3.38;1.20;;;12.30;91.50;;;;;;5031434;28;20399;-71
2023/01/16 12:58:18;;;;;;;3.55;1.20;;;12.60;93.40;;;;;;5031252;28;20041;-69
2023/01/16 13:01:03;;;;;;;4.38;1.35;;;12.50;93.40;;;;;;5028392;28;20431;-70
2023/01/16 13:04:00;;;;;;;4.57;2.50;;;12.20;92.20;;;;;;5016590;28;20049;-70
2023/01/16 13:06:36;;;;;;;4.70;1.40;;;12.40;93.40;;;;;;5003150;28;20420;-70
2023/01/16 13:09:08;;;;;;;3.22;1.58;;;12.70;93.50;;;;;;5027620;28;20045;-68
2023/01/16 13:14:23;;;;;;;3.90;1.35;;;12.50;92.80;;;;;;5034812;28;20430;-72
2023/01/16 13:17:06;;;;;;;6.10;1.55;;;12.30;91.50;;;;;;5051252;28;20045;-71
2023/01/16 13:19:35;;;;;;;7.60;1.85;;;12.40;93.50;;;;;;5049533;28;20427;-70
2023/01/16 13:22:06;;;;;;;4.55;1.50;;;12.50;93.50;;;;;;5050090;28;20457;-71
2023/01/16 13:24:40;;;;;;;4.47;1.42;;;12.40;92.30;;;;;;5050453;28;20037;-72
2023/01/16 13:27:15;;;;;;;4.65;1.75;;;12.20;92.10;;;;;;5050493;28;20096;-72
2023/01/16 13:30:10;;;;;;;6.78;1.70;;;;;;;;;;5050419;28;20072;-72
2023/01/16 13:32:39;;;;;;;3.75;1.52;;;;;;;;;;5018663;28;20419;-71
2023/01/16 13:35:19;;;;;;;4.47;1.25;;;12.60;91.70;;;;;;5035470;28;20048;-70
2023/01/16 13:38:15;;;;;;;7.63;1.65;;;12.40;91.70;;;;;;5050296;28;20054;-70
2023/01/16 13:41:06;;;;;;;2.45;1.02;;;12.40;91.70;;;;;;5048019;28;20050;-70
2023/01/16 13:46:19;;;;;;;5.05;1.70;;;12.50;93.50;;;;;;5034212;28;20050;-73
2023/01/16 13:48:50;;;;;;;3.30;1.15;;;;;;;;;;5030707;28;20045;-76
2023/01/16 13:51:18;;;;;;;4.40;1.50;;;;;;;;;;5013441;28;20080;-75
2023/01/16 13:53:50;;;;;;;4.97;1.58;;;12.50;92.20;;;;;;5032624;28;20450;-70
2023/01/16 13:56:22;;;;;;;3.10;1.30;;;12.60;92.10;;;;;;5035306;28;20045;-71
2023/01/16 13:59:21;;;;;;;3.40;1.25;;;12.70;91.90;;;;;;5048634;28;20050;-75
2023/01/16 14:01:56;;;;;;;2.65;1.17;;;12.70;92.30;;;;;;5014909;28;20049;-75
2023/01/16 14:04:30;;;;;;;2.35;1.33;;;12.80;92.40;;;;;;5033951;28;20045;-72
2023/01/16 14:10:01;;;;;;;6.10;1.48;;;12.70;91.70;;;;;;5032372;28;20054;-75
2023/01/16 14:12:34;;;;;;;2.78;1.10;;;;;;;;;;5028676;28;20038;-74
2023/01/16 14:17:57;;;;;;;3.28;1.20;;;12.60;93.50;;;;;;5034059;28;19921;-71
2023/01/16 14:20:52;;;;;;;2.58;1.08;;;12.70;92.40;;;;;;5032621;28;20124;-70
2023/01/16 14:26:06;;;;;;;3.47;1.10;;;;;;;;;;4953168;29;20043;-72
2023/01/16 14:28:33;;;;;;;2.85;1.00;;;;;;;;;;4936318;29;20097;-72
2023/01/16 14:30:59;;;;;;;3.22;1.02;;;12.60;93.40;;;;;;4934226;29;20051;-71
2023/01/16 14:33:25;;;;;;;2.50;1.08;;;12.70;93.40;;;;;;4951174;29;20545;-71
2023/01/16 14:35:51;;;;;;;3.92;1.25;;;12.90;93.50;;;;;;4950767;28;20146;-72
2023/01/16 14:38:19;;;;;;;2.85;1.00;;;13.00;93.50;;;;;;4953377;29;20051;-71
2023/01/16 14:56:10;;;;;;;2.30;0.90;;;12.70;91.70;;;;;;4952289;29;20401;-72
2023/01/16 14:59:12;;;;;;;3.85;1.23;;;12.60;92.40;;;;;;4956707;28;20090;-71
2023/01/16 15:04:49;;;;;;;2.03;0.85;;;12.80;93.60;;;;;;5032492;28;20045;-72
2023/01/16 15:07:16;;;;;;;1.38;0.70;;;12.70;93.50;;;;;;5034092;28;20060;-71
2023/01/16 15:09:43;;;;;;;1.92;0.82;;;12.90;93.60;;;;;;5033717;28;20041;-70
2023/01/16 15:12:19;;;;;;;2.92;0.80;;;12.80;91.80;;;;;;5031814;28;20053;-71
2023/01/16 15:14:54;;;;;;;2.72;1.05;;;12.80;93.60;;;;;;5032561;28;20045;-72
2023/01/16 15:23:36;;;;;;;2.30;0.80;;;12.60;91.80;;;;;;5045189;28;20068;-71
2023/01/16 15:26:05;;;;;;;2.50;0.80;;;12.70;91.60;;;;;;5031924;28;20073;-72
2023/01/16 15:28:37;;;;;;;1.48;0.70;;;12.80;91.80;;;;;;5033784;28;20099;-72
2023/01/16 15:31:16;;;;;;;3.13;0.90;;;12.90;93.60;;;;;;5032186;28;20103;-70
2023/01/16 15:33:46;;;;;;;2.25;0.90;;;12.70;93.60;;;;;;5016029;28;20049;-70
2023/01/16 15:36:22;;;;;;;3.90;0.80;;;13.00;93.70;;;;;;5032053;28;20059;-70
2023/01/16 15:38:49;;;;;;;2.80;0.93;;;13.00;92.40;;;;;;5033495;28;20437;-69
2023/01/16 15:41:19;;;;;;;1.45;0.70;;;12.70;91.60;;;;;;5046648;28;20048;-70
2023/01/16 15:46:44;;;;;;;1.98;0.80;;;;;;;;;;5023176;28;20046;-74
2023/01/16 15:49:36;;;;;;;1.98;0.90;;;12.90;92.50;;;;;;5032219;28;20046;-74
2023/01/16 15:52:02;;;;;;;2.17;0.60;;;12.90;93.60;;;;;;5006717;28;20049;-73
2023/01/16 15:54:28;;;;;;;2.55;0.93;;;;;;;;;;4997666;28;20052;-73
2023/01/16 15:56:55;;;;;;;1.77;0.68;;;;;;;;;;5048505;28;20041;-66
2023/01/16 15:59:25;;;;;;;1.92;0.82;;;;;;;;;;5030452;28;20434;-67
2023/01/16 16:01:51;;;;;;;3.08;0.70;;;;;;;;;;5030184;28;20057;-70